sensor_id;sensor_type;location;lat;lon;timestamp;temperature;humidity
15937;DHT22;9163;48.818;8.976;2023-02-26T00:01:35;-0.20;99.90
15937;DHT22;9163;48.818;8.976;2023-02-26T00:04:04;-0.30;99.90
15937;DHT22;9163;48.818;8.976;2023-02-26T00:06:32;-0.40;99.90
15937;DHT22;9163;48.818;8.976;2023-02-26T00:09:00;-0.40;99.90
15937;DHT22;9163;48.818;8.976;2023-02-26T00:11:28;-0.40;99.90
15937;DHT22;9163;48.818;8.976;2023-02-26T00:13:55;-0.50;99.90
15937;DHT22;9163;48.818;8.976;2023-02-26T00:16:28;-0.40;99.90
15937;DHT22;9163;48.818;8.976;2023-02-26T00:18:56;-0.40;99.90
15937;DHT22;9163;48.818;8.976;2023-02-26T00:21:25;-0.30;99.90
15937;DHT22;9163;48.818;8.976;2023-02-26T00:23:53;-0.30;99.90
15937;DHT22;9163;48.818;8.976;2023-02-26T00:26:22;-0.40;99.90
15937;DHT22;9163;48.818;8.976;2023-02-26T00:28:51;-0.50;99.90
15937;DHT22;9163;48.818;8.976;2023-02-26T00:31:19;-0.60;99.90
15937;DHT22;9163;48.818;8.976;2023-02-26T00:33:51;-0.50;99.90
15937;DHT22;9163;48.818;8.976;2023-02-26T00:36:22;-0.60;99.90
15937;DHT22;9163;48.818;8.976;2023-02-26T00:39:00;-0.70;99.90
15937;DHT22;9163;48.818;8.976;2023-02-26T00:41:30;-0.60;99.90
15937;DHT22;9163;48.818;8.976;2023-02-26T00:43:58;-0.70;99.90
15937;DHT22;9163;48.818;8.976;2023-02-26T00:46:34;-0.70;99.90
15937;DHT22;9163;48.818;8.976;2023-02-26T00:49:13;-0.70;99.90
15937;DHT22;9163;48.818;8.976;2023-02-26T00:51:47;-0.80;99.90
15937;DHT22;9163;48.818;8.976;2023-02-26T00:54:18;-0.80;99.90
15937;DHT22;9163;48.818;8.976;2023-02-26T00:56:46;-0.90;99.90
15937;DHT22;9163;48.818;8.976;2023-02-26T00:59:14;-1.00;99.90
15937;DHT22;9163;48.818;8.976;2023-02-26T01:01:41;-0.90;99.90
15937;DHT22;9163;48.818;8.976;2023-02-26T01:04:11;-1.00;99.90
15937;DHT22;9163;48.818;8.976;2023-02-26T01:06:43;-0.90;99.90
15937;DHT22;9163;48.818;8.976;2023-02-26T01:09:16;-1.00;99.90
15937;DHT22;9163;48.818;8.976;2023-02-26T01:11:45;-1.00;99.90
15937;DHT22;9163;48.818;8.976;2023-02-26T01:14:13;-1.00;99.90
15937;DHT22;9163;48.818;8.976;2023-02-26T01:16:50;-1.10;99.90
15937;DHT22;9163;48.818;8.976;2023-02-26T01:19:28;-1.10;99.90
15937;DHT22;9163;48.818;8.976;2023-02-26T01:22:02;-1.20;99.90
15937;DHT22;9163;48.818;8.976;2023-02-26T01:24:33;-1.20;99.90
15937;DHT22;9163;48.818;8.976;2023-02-26T01:27:03;-1.20;99.90
15937;DHT22;9163;48.818;8.976;2023-02-26T01:29:31;-1.20;99.90
15937;DHT22;9163;48.818;8.976;2023-02-26T01:32:03;-1.20;99.90
15937;DHT22;9163;48.818;8.976;2023-02-26T01:34:38;-1.30;99.90
15937;DHT22;9163;48.818;8.976;2023-02-26T01:37:18;-1.40;99.90
15937;DHT22;9163;48.818;8.976;2023-02-26T01:39:57;-1.30;99.90
15937;DHT22;9163;48.818;8.976;2023-02-26T01:42:31;-1.40;99.90
15937;DHT22;9163;48.818;8.976;2023-02-26T01:45:02;-1.40;99.90
15937;DHT22;9163;48.818;8.976;2023-02-26T01:47:38;-1.50;99.90
15937;DHT22;9163;48.818;8.976;2023-02-26T01:50:12;-1.40;99.90
15937;DHT22;9163;48.818;8.976;2023-02-26T01:53:18;-1.50;99.90
15937;DHT22;9163;48.818;8.976;2023-02-26T01:55:50;-1.60;99.90
15937;DHT22;9163;48.818;8.976;2023-02-26T01:58:19;-1.70;99.90
15937;DHT22;9163;48.818;8.976;2023-02-26T02:00:47;-1.80;99.90
15937;DHT22;9163;48.818;8.976;2023-02-26T02:03:15;-1.90;99.90
15937;DHT22;9163;48.818;8.976;2023-02-26T02:05:47;-1.80;99.90
15937;DHT22;9163;48.818;8.976;2023-02-26T02:08:17;-1.80;99.90
15937;DHT22;9163;48.818;8.976;2023-02-26T02:10:47;-1.80;99.90
15937;DHT22;9163;48.818;8.976;2023-02-26T02:13:27;-1.80;99.90
15937;DHT22;9163;48.818;8.976;2023-02-26T02:16:07;-1.80;99.90
15937;DHT22;9163;48.818;8.976;2023-02-26T02:18:44;-1.90;99.90
15937;DHT22;9163;48.818;8.976;2023-02-26T02:21:28;-1.90;99.90
15937;DHT22;9163;48.818;8.976;2023-02-26T02:24:01;-2.00;99.90
15937;DHT22;9163;48.818;8.976;2023-02-26T02:32:18;-2.20;99.90
15937;DHT22;9163;48.818;8.976;2023-02-26T02:34:49;-2.10;99.90
15937;DHT22;9163;48.818;8.976;2023-02-26T02:37:22;-2.20;99.90
15937;DHT22;9163;48.818;8.976;2023-02-26T02:39:53;-2.20;99.90
15937;DHT22;9163;48.818;8.976;2023-02-26T02:42:27;-2.30;99.90
15937;DHT22;9163;48.818;8.976;2023-02-26T02:44:58;-2.30;99.90
15937;DHT22;9163;48.818;8.976;2023-02-26T02:47:30;-2.30;99.90
15937;DHT22;9163;48.818;8.976;2023-02-26T02:50:03;-2.30;99.90
15937;DHT22;9163;48.818;8.976;2023-02-26T02:52:37;-2.40;99.90
15937;DHT22;9163;48.818;8.976;2023-02-26T02:55:12;-2.40;99.90
15937;DHT22;9163;48.818;8.976;2023-02-26T02:57:44;-2.50;99.90
15937;DHT22;9163;48.818;8.976;2023-02-26T03:00:13;-2.60;99.90
15937;DHT22;9163;48.818;8.976;2023-02-26T03:02:49;-2.60;99.90
15937;DHT22;9163;48.818;8.976;2023-02-26T03:05:18;-2.70;99.90
15937;DHT22;9163;48.818;8.976;2023-02-26T03:07:49;-2.80;99.90
15937;DHT22;9163;48.818;8.976;2023-02-26T03:10:19;-2.80;99.90
15937;DHT22;9163;48.818;8.976;2023-02-26T03:12:46;-2.80;99.90
15937;DHT22;9163;48.818;8.976;2023-02-26T03:15:14;-2.80;99.90
15937;DHT22;9163;48.818;8.976;2023-02-26T03:17:50;-2.80;99.90
15937;DHT22;9163;48.818;8.976;2023-02-26T03:20:25;-2.80;99.90
15937;DHT22;9163;48.818;8.976;2023-02-26T03:23:02;-2.80;99.90
15937;DHT22;9163;48.818;8.976;2023-02-26T03:25:39;-2.80;99.90
15937;DHT22;9163;48.818;8.976;2023-02-26T03:28:16;-2.70;99.90
15937;DHT22;9163;48.818;8.976;2023-02-26T03:30:49;-2.50;99.90
15937;DHT22;9163;48.818;8.976;2023-02-26T03:33:24;-2.50;99.90
15937;DHT22;9163;48.818;8.976;2023-02-26T03:35:57;-2.60;99.90
15937;DHT22;9163;48.818;8.976;2023-02-26T03:38:29;-2.60;99.90
15937;DHT22;9163;48.818;8.976;2023-02-26T03:41:01;-2.70;99.90
15937;DHT22;9163;48.818;8.976;2023-02-26T03:43:33;-2.70;99.90
15937;DHT22;9163;48.818;8.976;2023-02-26T03:46:04;-2.80;99.90
15937;DHT22;9163;48.818;8.976;2023-02-26T03:48:34;-2.90;99.90
15937;DHT22;9163;48.818;8.976;2023-02-26T03:51:05;-2.90;99.90
15937;DHT22;9163;48.818;8.976;2023-02-26T03:53:38;-2.90;99.90
15937;DHT22;9163;48.818;8.976;2023-02-26T03:56:14;-3.00;99.90
15937;DHT22;9163;48.818;8.976;2023-02-26T03:58:42;-2.90;99.90
15937;DHT22;9163;48.818;8.976;2023-02-26T04:01:14;-2.90;99.90
15937;DHT22;9163;48.818;8.976;2023-02-26T04:03:48;-2.90;99.90
15937;DHT22;9163;48.818;8.976;2023-02-26T04:06:16;-2.90;99.90
15937;DHT22;9163;48.818;8.976;2023-02-26T04:08:45;-2.90;99.90
15937;DHT22;9163;48.818;8.976;2023-02-26T04:11:15;-2.90;99.90
15937;DHT22;9163;48.818;8.976;2023-02-26T04:13:44;-3.00;99.90
15937;DHT22;9163;48.818;8.976;2023-02-26T04:16:12;-3.10;99.90
15937;DHT22;9163;48.818;8.976;2023-02-26T04:18:40;-3.10;99.90
15937;DHT22;9163;48.818;8.976;2023-02-26T04:21:11;-3.10;99.90
15937;DHT22;9163;48.818;8.976;2023-02-26T04:23:38;-3.10;99.90
15937;DHT22;9163;48.818;8.976;2023-02-26T04:26:06;-3.10;99.90
15937;DHT22;9163;48.818;8.976;2023-02-26T04:28:33;-3.20;99.90
15937;DHT22;9163;48.818;8.976;2023-02-26T04:31:03;-3.20;99.90
15937;DHT22;9163;48.818;8.976;2023-02-26T04:33:31;-3.20;99.90
15937;DHT22;9163;48.818;8.976;2023-02-26T04:35:58;-3.30;99.90
15937;DHT22;9163;48.818;8.976;2023-02-26T04:38:27;-3.30;99.90
15937;DHT22;9163;48.818;8.976;2023-02-26T04:40:54;-3.30;99.90
15937;DHT22;9163;48.818;8.976;2023-02-26T04:43:22;-3.30;99.90
15937;DHT22;9163;48.818;8.976;2023-02-26T04:45:49;-3.30;99.90
15937;DHT22;9163;48.818;8.976;2023-02-26T04:48:17;-3.30;99.90
15937;DHT22;9163;48.818;8.976;2023-02-26T04:50:45;-3.30;99.90
15937;DHT22;9163;48.818;8.976;2023-02-26T04:53:12;-3.40;99.90
15937;DHT22;9163;48.818;8.976;2023-02-26T04:55:41;-3.40;99.90
15937;DHT22;9163;48.818;8.976;2023-02-26T04:58:08;-3.40;99.90
15937;DHT22;9163;48.818;8.976;2023-02-26T05:00:35;-3.50;99.90
15937;DHT22;9163;48.818;8.976;2023-02-26T05:03:03;-3.40;99.90
15937;DHT22;9163;48.818;8.976;2023-02-26T05:05:30;-3.40;99.90
15937;DHT22;9163;48.818;8.976;2023-02-26T05:07:58;-3.40;99.90
15937;DHT22;9163;48.818;8.976;2023-02-26T05:10:25;-3.40;99.90
15937;DHT22;9163;48.818;8.976;2023-02-26T05:12:54;-3.40;99.90
15937;DHT22;9163;48.818;8.976;2023-02-26T05:15:21;-3.30;99.90
15937;DHT22;9163;48.818;8.976;2023-02-26T05:17:48;-3.30;99.90
15937;DHT22;9163;48.818;8.976;2023-02-26T05:20:16;-3.30;99.90
15937;DHT22;9163;48.818;8.976;2023-02-26T05:22:43;-3.30;99.90
15937;DHT22;9163;48.818;8.976;2023-02-26T05:25:11;-3.30;99.90
15937;DHT22;9163;48.818;8.976;2023-02-26T05:27:39;-3.30;99.90
15937;DHT22;9163;48.818;8.976;2023-02-26T05:30:10;-3.30;99.90
15937;DHT22;9163;48.818;8.976;2023-02-26T05:32:39;-3.40;99.90
15937;DHT22;9163;48.818;8.976;2023-02-26T05:35:07;-3.20;99.90
15937;DHT22;9163;48.818;8.976;2023-02-26T05:37:35;-3.30;99.90
15937;DHT22;9163;48.818;8.976;2023-02-26T05:40:04;-3.30;99.90
15937;DHT22;9163;48.818;8.976;2023-02-26T05:42:34;-3.20;99.90
15937;DHT22;9163;48.818;8.976;2023-02-26T05:45:01;-3.30;99.90
15937;DHT22;9163;48.818;8.976;2023-02-26T05:47:31;-3.30;99.90
15937;DHT22;9163;48.818;8.976;2023-02-26T05:49:58;-3.40;99.90
15937;DHT22;9163;48.818;8.976;2023-02-26T05:52:25;-3.30;99.90
15937;DHT22;9163;48.818;8.976;2023-02-26T05:54:52;-3.40;99.90
15937;DHT22;9163;48.818;8.976;2023-02-26T05:57:21;-3.40;99.90
15937;DHT22;9163;48.818;8.976;2023-02-26T05:59:48;-3.40;99.90
15937;DHT22;9163;48.818;8.976;2023-02-26T06:02:15;-3.40;99.90
15937;DHT22;9163;48.818;8.976;2023-02-26T06:04:44;-3.40;99.90
15937;DHT22;9163;48.818;8.976;2023-02-26T06:07:11;-3.40;99.90
15937;DHT22;9163;48.818;8.976;2023-02-26T06:09:39;-3.50;99.90
15937;DHT22;9163;48.818;8.976;2023-02-26T06:12:06;-3.50;99.90
15937;DHT22;9163;48.818;8.976;2023-02-26T06:14:35;-3.50;99.90
15937;DHT22;9163;48.818;8.976;2023-02-26T06:17:03;-3.50;99.90
15937;DHT22;9163;48.818;8.976;2023-02-26T06:19:30;-3.50;99.90
15937;DHT22;9163;48.818;8.976;2023-02-26T06:21:59;-3.50;99.90
15937;DHT22;9163;48.818;8.976;2023-02-26T06:24:26;-3.50;99.90
15937;DHT22;9163;48.818;8.976;2023-02-26T06:26:53;-3.40;99.90
15937;DHT22;9163;48.818;8.976;2023-02-26T06:29:20;-3.40;99.90
15937;DHT22;9163;48.818;8.976;2023-02-26T06:31:48;-3.40;99.90
15937;DHT22;9163;48.818;8.976;2023-02-26T06:34:16;-3.40;99.90
15937;DHT22;9163;48.818;8.976;2023-02-26T06:36:43;-3.50;99.90
15937;DHT22;9163;48.818;8.976;2023-02-26T06:39:12;-3.40;99.90
15937;DHT22;9163;48.818;8.976;2023-02-26T06:41:39;-3.40;99.90
15937;DHT22;9163;48.818;8.976;2023-02-26T06:44:07;-3.30;99.90
15937;DHT22;9163;48.818;8.976;2023-02-26T06:46:34;-3.10;99.90
15937;DHT22;9163;48.818;8.976;2023-02-26T06:49:01;-3.10;99.90
15937;DHT22;9163;48.818;8.976;2023-02-26T06:51:28;-2.90;99.90
15937;DHT22;9163;48.818;8.976;2023-02-26T06:53:56;-2.70;99.90
15937;DHT22;9163;48.818;8.976;2023-02-26T06:56:25;-2.60;99.90
15937;DHT22;9163;48.818;8.976;2023-02-26T06:58:52;-2.70;99.90
15937;DHT22;9163;48.818;8.976;2023-02-26T07:01:20;-2.50;99.90
15937;DHT22;9163;48.818;8.976;2023-02-26T07:03:49;-2.50;99.90
15937;DHT22;9163;48.818;8.976;2023-02-26T07:06:16;-2.40;99.90
15937;DHT22;9163;48.818;8.976;2023-02-26T07:08:44;-2.30;99.90
15937;DHT22;9163;48.818;8.976;2023-02-26T07:11:11;-2.20;99.90
15937;DHT22;9163;48.818;8.976;2023-02-26T07:13:41;-2.20;99.90
15937;DHT22;9163;48.818;8.976;2023-02-26T07:16:08;-2.20;99.90
15937;DHT22;9163;48.818;8.976;2023-02-26T07:18:36;-2.20;99.90
15937;DHT22;9163;48.818;8.976;2023-02-26T07:21:04;-2.10;99.90
15937;DHT22;9163;48.818;8.976;2023-02-26T07:23:31;-2.00;99.90
15937;DHT22;9163;48.818;8.976;2023-02-26T07:25:58;-1.90;99.90
15937;DHT22;9163;48.818;8.976;2023-02-26T07:28:26;-1.80;99.90
15937;DHT22;9163;48.818;8.976;2023-02-26T07:30:54;-1.70;99.90
15937;DHT22;9163;48.818;8.976;2023-02-26T07:33:22;-1.60;99.90
15937;DHT22;9163;48.818;8.976;2023-02-26T07:35:51;-1.50;99.90
15937;DHT22;9163;48.818;8.976;2023-02-26T07:38:18;-1.50;99.90
15937;DHT22;9163;48.818;8.976;2023-02-26T07:40:46;-1.40;99.90
15937;DHT22;9163;48.818;8.976;2023-02-26T07:43:13;-1.30;99.90
15937;DHT22;9163;48.818;8.976;2023-02-26T07:45:40;-1.30;99.90
15937;DHT22;9163;48.818;8.976;2023-02-26T07:48:09;-1.30;99.90
15937;DHT22;9163;48.818;8.976;2023-02-26T07:50:36;-1.20;99.90
15937;DHT22;9163;48.818;8.976;2023-02-26T07:53:03;-0.90;99.90
15937;DHT22;9163;48.818;8.976;2023-02-26T07:55:30;-0.70;99.90
15937;DHT22;9163;48.818;8.976;2023-02-26T07:57:57;-0.70;99.90
15937;DHT22;9163;48.818;8.976;2023-02-26T08:00:25;-0.70;99.90
15937;DHT22;9163;48.818;8.976;2023-02-26T08:02:52;-0.80;99.90
15937;DHT22;9163;48.818;8.976;2023-02-26T08:05:20;-0.90;99.90
15937;DHT22;9163;48.818;8.976;2023-02-26T08:07:48;-0.80;99.90
15937;DHT22;9163;48.818;8.976;2023-02-26T08:10:15;-0.90;99.90
15937;DHT22;9163;48.818;8.976;2023-02-26T08:12:42;-0.90;99.90
15937;DHT22;9163;48.818;8.976;2023-02-26T08:15:10;-1.00;99.90
15937;DHT22;9163;48.818;8.976;2023-02-26T08:17:39;-1.00;99.90
15937;DHT22;9163;48.818;8.976;2023-02-26T08:20:07;-0.90;99.90
15937;DHT22;9163;48.818;8.976;2023-02-26T08:22:36;-0.80;99.90
15937;DHT22;9163;48.818;8.976;2023-02-26T08:25:03;-0.60;99.90
15937;DHT22;9163;48.818;8.976;2023-02-26T08:27:31;-0.40;99.90
15937;DHT22;9163;48.818;8.976;2023-02-26T08:29:58;-0.30;99.90
15937;DHT22;9163;48.818;8.976;2023-02-26T08:32:25;-0.40;99.90
15937;DHT22;9163;48.818;8.976;2023-02-26T08:34:53;-0.40;99.90
15937;DHT22;9163;48.818;8.976;2023-02-26T08:37:20;-0.30;99.90
15937;DHT22;9163;48.818;8.976;2023-02-26T08:39:50;-0.30;99.90
15937;DHT22;9163;48.818;8.976;2023-02-26T08:42:18;-0.20;99.90
15937;DHT22;9163;48.818;8.976;2023-02-26T08:44:45;-0.20;99.90
15937;DHT22;9163;48.818;8.976;2023-02-26T08:47:13;0.10;99.90
15937;DHT22;9163;48.818;8.976;2023-02-26T08:49:40;0.20;99.90
15937;DHT22;9163;48.818;8.976;2023-02-26T08:52:07;0.20;99.90
15937;DHT22;9163;48.818;8.976;2023-02-26T08:54:34;0.20;99.90
15937;DHT22;9163;48.818;8.976;2023-02-26T08:57:03;0.30;99.90
15937;DHT22;9163;48.818;8.976;2023-02-26T08:59:30;0.50;99.90
15937;DHT22;9163;48.818;8.976;2023-02-26T09:01:57;0.80;99.90
15937;DHT22;9163;48.818;8.976;2023-02-26T09:04:25;1.30;99.90
15937;DHT22;9163;48.818;8.976;2023-02-26T09:06:53;1.70;99.90
15937;DHT22;9163;48.818;8.976;2023-02-26T09:09:21;1.90;96.80
15937;DHT22;9163;48.818;8.976;2023-02-26T09:11:48;1.70;90.10
15937;DHT22;9163;48.818;8.976;2023-02-26T09:14:16;1.10;99.90
15937;DHT22;9163;48.818;8.976;2023-02-26T09:16:44;0.90;99.90
15937;DHT22;9163;48.818;8.976;2023-02-26T09:19:11;0.60;99.90
15937;DHT22;9163;48.818;8.976;2023-02-26T09:21:38;0.20;99.90
15937;DHT22;9163;48.818;8.976;2023-02-26T09:24:06;0.10;99.90
15937;DHT22;9163;48.818;8.976;2023-02-26T09:26:33;-0.30;99.90
15937;DHT22;9163;48.818;8.976;2023-02-26T09:29:01;-0.50;99.90
15937;DHT22;9163;48.818;8.976;2023-02-26T09:31:29;-0.60;99.90
15937;DHT22;9163;48.818;8.976;2023-02-26T09:33:57;-0.70;99.90
15937;DHT22;9163;48.818;8.976;2023-02-26T09:36:24;-0.60;99.90
15937;DHT22;9163;48.818;8.976;2023-02-26T09:38:52;-0.60;99.90
15937;DHT22;9163;48.818;8.976;2023-02-26T09:41:23;-0.50;99.90
15937;DHT22;9163;48.818;8.976;2023-02-26T09:44:10;-0.40;99.90
15937;DHT22;9163;48.818;8.976;2023-02-26T09:46:47;-0.30;99.90
15937;DHT22;9163;48.818;8.976;2023-02-26T09:49:21;-0.30;99.90
15937;DHT22;9163;48.818;8.976;2023-02-26T09:51:53;-0.20;99.90
15937;DHT22;9163;48.818;8.976;2023-02-26T09:54:23;-0.20;99.90
15937;DHT22;9163;48.818;8.976;2023-02-26T09:56:52;-0.30;99.90
15937;DHT22;9163;48.818;8.976;2023-02-26T09:59:19;-0.30;99.90
15937;DHT22;9163;48.818;8.976;2023-02-26T10:01:54;-0.50;99.90
15937;DHT22;9163;48.818;8.976;2023-02-26T10:04:30;-0.60;99.90
15937;DHT22;9163;48.818;8.976;2023-02-26T10:07:09;-0.70;99.90
15937;DHT22;9163;48.818;8.976;2023-02-26T10:10:00;-0.70;99.90
15937;DHT22;9163;48.818;8.976;2023-02-26T10:12:33;-0.70;99.90
15937;DHT22;9163;48.818;8.976;2023-02-26T10:15:07;-0.70;99.90
15937;DHT22;9163;48.818;8.976;2023-02-26T10:17:44;-0.70;99.90
15937;DHT22;9163;48.818;8.976;2023-02-26T10:20:18;-0.90;99.90
15937;DHT22;9163;48.818;8.976;2023-02-26T10:22:53;-1.00;99.90
15937;DHT22;9163;48.818;8.976;2023-02-26T10:25:25;-0.90;99.90
15937;DHT22;9163;48.818;8.976;2023-02-26T10:27:59;-0.90;99.90
15937;DHT22;9163;48.818;8.976;2023-02-26T10:30:33;-0.80;99.90
15937;DHT22;9163;48.818;8.976;2023-02-26T10:33:12;-0.80;99.90
15937;DHT22;9163;48.818;8.976;2023-02-26T10:35:46;-0.70;99.90
15937;DHT22;9163;48.818;8.976;2023-02-26T10:38:19;-0.70;99.90
15937;DHT22;9163;48.818;8.976;2023-02-26T10:40:52;-0.50;99.90
15937;DHT22;9163;48.818;8.976;2023-02-26T10:43:21;-0.50;99.90
15937;DHT22;9163;48.818;8.976;2023-02-26T10:46:01;-0.50;99.90
15937;DHT22;9163;48.818;8.976;2023-02-26T10:48:48;-0.40;99.90
15937;DHT22;9163;48.818;8.976;2023-02-26T10:51:20;-0.30;99.90
15937;DHT22;9163;48.818;8.976;2023-02-26T10:53:51;-0.20;99.90
15937;DHT22;9163;48.818;8.976;2023-02-26T10:56:23;0.00;99.90
15937;DHT22;9163;48.818;8.976;2023-02-26T10:58:51;0.10;99.90
15937;DHT22;9163;48.818;8.976;2023-02-26T11:01:21;0.20;99.90
15937;DHT22;9163;48.818;8.976;2023-02-26T11:03:55;0.20;99.90
15937;DHT22;9163;48.818;8.976;2023-02-26T11:06:26;0.10;99.90
15937;DHT22;9163;48.818;8.976;2023-02-26T11:08:55;0.20;99.90
15937;DHT22;9163;48.818;8.976;2023-02-26T11:11:39;0.20;99.90
15937;DHT22;9163;48.818;8.976;2023-02-26T11:14:07;0.20;99.90
15937;DHT22;9163;48.818;8.976;2023-02-26T11:16:35;0.20;99.90
15937;DHT22;9163;48.818;8.976;2023-02-26T11:19:08;0.20;99.90
15937;DHT22;9163;48.818;8.976;2023-02-26T11:21:39;0.00;99.90
15937;DHT22;9163;48.818;8.976;2023-02-26T11:24:10;-0.10;99.90
15937;DHT22;9163;48.818;8.976;2023-02-26T11:26:42;-0.20;99.90
15937;DHT22;9163;48.818;8.976;2023-02-26T11:29:13;-0.10;99.90
15937;DHT22;9163;48.818;8.976;2023-02-26T11:31:41;-0.10;99.90
15937;DHT22;9163;48.818;8.976;2023-02-26T11:34:11;-0.20;99.90
15937;DHT22;9163;48.818;8.976;2023-02-26T11:36:40;-0.10;99.90
15937;DHT22;9163;48.818;8.976;2023-02-26T11:39:14;0.00;99.90
15937;DHT22;9163;48.818;8.976;2023-02-26T11:41:44;0.30;99.90
15937;DHT22;9163;48.818;8.976;2023-02-26T11:44:14;1.10;99.90
15937;DHT22;9163;48.818;8.976;2023-02-26T11:46:45;1.90;99.90
15937;DHT22;9163;48.818;8.976;2023-02-26T11:49:19;2.20;99.90
15937;DHT22;9163;48.818;8.976;2023-02-26T11:51:59;2.30;94.30
15937;DHT22;9163;48.818;8.976;2023-02-26T11:54:28;2.10;85.10
15937;DHT22;9163;48.818;8.976;2023-02-26T11:57:00;1.70;96.70
15937;DHT22;9163;48.818;8.976;2023-02-26T11:59:31;1.50;99.90
15937;DHT22;9163;48.818;8.976;2023-02-26T12:02:02;1.30;99.90
15937;DHT22;9163;48.818;8.976;2023-02-26T12:04:31;1.20;99.90
15937;DHT22;9163;48.818;8.976;2023-02-26T12:06:59;1.20;99.90
15937;DHT22;9163;48.818;8.976;2023-02-26T12:09:26;1.10;99.90
15937;DHT22;9163;48.818;8.976;2023-02-26T12:15:04;0.70;99.90
15937;DHT22;9163;48.818;8.976;2023-02-26T12:17:43;0.70;99.90
15937;DHT22;9163;48.818;8.976;2023-02-26T12:20:19;0.60;99.90
15937;DHT22;9163;48.818;8.976;2023-02-26T12:23:01;0.50;99.90
15937;DHT22;9163;48.818;8.976;2023-02-26T12:25:58;0.50;99.90
15937;DHT22;9163;48.818;8.976;2023-02-26T12:31:38;0.30;99.90
15937;DHT22;9163;48.818;8.976;2023-02-26T12:34:20;0.40;99.90
15937;DHT22;9163;48.818;8.976;2023-02-26T12:37:10;0.50;99.90
15937;DHT22;9163;48.818;8.976;2023-02-26T12:39:51;0.60;99.90
15937;DHT22;9163;48.818;8.976;2023-02-26T12:42:33;0.60;99.90
15937;DHT22;9163;48.818;8.976;2023-02-26T12:45:16;0.60;99.90
15937;DHT22;9163;48.818;8.976;2023-02-26T12:47:58;0.60;99.90
15937;DHT22;9163;48.818;8.976;2023-02-26T12:50:47;0.50;99.90
15937;DHT22;9163;48.818;8.976;2023-02-26T12:53:39;0.50;99.90
15937;DHT22;9163;48.818;8.976;2023-02-26T12:56:25;0.50;99.90
15937;DHT22;9163;48.818;8.976;2023-02-26T12:59:09;0.40;99.90
15937;DHT22;9163;48.818;8.976;2023-02-26T13:01:56;0.30;99.90
15937;DHT22;9163;48.818;8.976;2023-02-26T13:04:40;0.20;99.90
15937;DHT22;9163;48.818;8.976;2023-02-26T13:07:19;0.20;99.90
15937;DHT22;9163;48.818;8.976;2023-02-26T13:10:00;0.20;99.90
15937;DHT22;9163;48.818;8.976;2023-02-26T13:12:40;0.10;99.90
15937;DHT22;9163;48.818;8.976;2023-02-26T13:18:10;0.30;99.90
15937;DHT22;9163;48.818;8.976;2023-02-26T13:20:48;0.50;99.90
15937;DHT22;9163;48.818;8.976;2023-02-26T13:23:23;0.50;99.90
15937;DHT22;9163;48.818;8.976;2023-02-26T13:25:55;0.80;99.90
15937;DHT22;9163;48.818;8.976;2023-02-26T13:28:33;0.90;99.90
15937;DHT22;9163;48.818;8.976;2023-02-26T13:31:06;1.00;99.90
15937;DHT22;9163;48.818;8.976;2023-02-26T13:33:35;1.00;99.90
15937;DHT22;9163;48.818;8.976;2023-02-26T13:36:04;0.90;99.90
15937;DHT22;9163;48.818;8.976;2023-02-26T13:38:41;0.90;99.90
15937;DHT22;9163;48.818;8.976;2023-02-26T13:41:15;0.90;99.90
15937;DHT22;9163;48.818;8.976;2023-02-26T13:44:00;0.70;99.90
15937;DHT22;9163;48.818;8.976;2023-02-26T13:46:41;0.50;99.90
15937;DHT22;9163;48.818;8.976;2023-02-26T13:49:17;0.60;99.90
15937;DHT22;9163;48.818;8.976;2023-02-26T13:51:48;0.70;99.90
15937;DHT22;9163;48.818;8.976;2023-02-26T13:54:33;0.90;99.90
15937;DHT22;9163;48.818;8.976;2023-02-26T13:57:22;1.10;99.90
15937;DHT22;9163;48.818;8.976;2023-02-26T13:59:59;1.10;99.90
15937;DHT22;9163;48.818;8.976;2023-02-26T14:08:50;1.20;99.90
15937;DHT22;9163;48.818;8.976;2023-02-26T14:14:24;1.30;92.50
15937;DHT22;9163;48.818;8.976;2023-02-26T14:17:19;1.40;89.10
15937;DHT22;9163;48.818;8.976;2023-02-26T14:20:20;1.40;76.90
15937;DHT22;9163;48.818;8.976;2023-02-26T14:22:52;1.50;75.60
15937;DHT22;9163;48.818;8.976;2023-02-26T14:25:28;1.50;60.70
15937;DHT22;9163;48.818;8.976;2023-02-26T14:31:08;1.80;45.00
15937;DHT22;9163;48.818;8.976;2023-02-26T14:33:41;2.00;30.00
15937;DHT22;9163;48.818;8.976;2023-02-26T14:36:16;2.10;13.20
15937;DHT22;9163;48.818;8.976;2023-02-26T14:38:45;2.40;10.80
15937;DHT22;9163;48.818;8.976;2023-02-26T14:41:24;2.60;1.00
15937;DHT22;9163;48.818;8.976;2023-02-26T14:43:58;2.70;1.00
15937;DHT22;9163;48.818;8.976;2023-02-26T14:46:28;2.40;1.00
15937;DHT22;9163;48.818;8.976;2023-02-26T14:48:56;2.10;1.00
15937;DHT22;9163;48.818;8.976;2023-02-26T14:51:33;1.90;1.00
15937;DHT22;9163;48.818;8.976;2023-02-26T14:54:21;1.80;1.00
15937;DHT22;9163;48.818;8.976;2023-02-26T14:57:02;1.80;1.00
15937;DHT22;9163;48.818;8.976;2023-02-26T14:59:52;1.70;1.00
15937;DHT22;9163;48.818;8.976;2023-02-26T15:02:27;1.50;1.00
15937;DHT22;9163;48.818;8.976;2023-02-26T15:05:17;1.40;1.00
15937;DHT22;9163;48.818;8.976;2023-02-26T15:08:03;1.50;1.00
15937;DHT22;9163;48.818;8.976;2023-02-26T15:10:44;1.40;1.00
15937;DHT22;9163;48.818;8.976;2023-02-26T15:13:38;1.30;1.80
15937;DHT22;9163;48.818;8.976;2023-02-26T15:16:19;1.30;1.00
15937;DHT22;9163;48.818;8.976;2023-02-26T15:19:13;1.20;1.00
15937;DHT22;9163;48.818;8.976;2023-02-26T15:21:53;1.20;1.00
15937;DHT22;9163;48.818;8.976;2023-02-26T15:24:25;1.20;1.00
15937;DHT22;9163;48.818;8.976;2023-02-26T15:26:57;1.30;1.00
15937;DHT22;9163;48.818;8.976;2023-02-26T15:29:27;1.30;1.00
15937;DHT22;9163;48.818;8.976;2023-02-26T15:31:58;1.30;6.40
15937;DHT22;9163;48.818;8.976;2023-02-26T15:34:29;1.20;12.80
15937;DHT22;9163;48.818;8.976;2023-02-26T15:36:58;1.10;12.40
15937;DHT22;9163;48.818;8.976;2023-02-26T15:39:27;1.10;14.30
15937;DHT22;9163;48.818;8.976;2023-02-26T15:41:54;0.90;3.30
15937;DHT22;9163;48.818;8.976;2023-02-26T15:44:26;0.90;5.80
15937;DHT22;9163;48.818;8.976;2023-02-26T15:46:56;1.20;1.50
15937;DHT22;9163;48.818;8.976;2023-02-26T15:49:27;2.10;1.00
15937;DHT22;9163;48.818;8.976;2023-02-26T15:51:58;3.50;1.00
15937;DHT22;9163;48.818;8.976;2023-02-26T15:54:32;4.40;1.00
15937;DHT22;9163;48.818;8.976;2023-02-26T15:57:01;5.20;1.00
15937;DHT22;9163;48.818;8.976;2023-02-26T15:59:30;5.30;1.00
15937;DHT22;9163;48.818;8.976;2023-02-26T16:02:01;5.20;1.00
15937;DHT22;9163;48.818;8.976;2023-02-26T16:04:28;4.80;1.00
15937;DHT22;9163;48.818;8.976;2023-02-26T16:06:57;4.40;1.00
15937;DHT22;9163;48.818;8.976;2023-02-26T16:09:27;3.90;1.00
15937;DHT22;9163;48.818;8.976;2023-02-26T16:11:58;3.10;1.00
15937;DHT22;9163;48.818;8.976;2023-02-26T16:14:31;2.70;1.00
15937;DHT22;9163;48.818;8.976;2023-02-26T16:17:00;2.30;1.00
15937;DHT22;9163;48.818;8.976;2023-02-26T16:19:32;2.10;1.00
15937;DHT22;9163;48.818;8.976;2023-02-26T16:22:06;1.70;1.00
15937;DHT22;9163;48.818;8.976;2023-02-26T16:24:34;1.40;1.00
15937;DHT22;9163;48.818;8.976;2023-02-26T16:27:04;1.10;1.00
15937;DHT22;9163;48.818;8.976;2023-02-26T16:29:35;0.90;1.00
15937;DHT22;9163;48.818;8.976;2023-02-26T16:32:04;0.80;4.10
15937;DHT22;9163;48.818;8.976;2023-02-26T16:34:35;0.60;1.00
15937;DHT22;9163;48.818;8.976;2023-02-26T16:37:23;0.40;1.00
15937;DHT22;9163;48.818;8.976;2023-02-26T16:39:53;0.40;1.00
15937;DHT22;9163;48.818;8.976;2023-02-26T16:42:32;0.30;1.00
15937;DHT22;9163;48.818;8.976;2023-02-26T16:45:16;0.20;1.00
15937;DHT22;9163;48.818;8.976;2023-02-26T16:47:46;0.20;1.00
15937;DHT22;9163;48.818;8.976;2023-02-26T16:50:18;0.10;1.00
15937;DHT22;9163;48.818;8.976;2023-02-26T16:52:53;0.10;1.00